Aviation Digital Data Service (ADDS)

Output produced by METARs form (2321 UTC 24 May 2018)
found at http://aviationweather.gov/adds/metars/
 
KINT 241723Z 2418/2518 08007KT P6SM SCT040 
     TEMPO 2418/2420 BKN040 
     FM250900 VRB02KT P6SM SCT010 
     FM251000 VRB03KT P6SM OVC008 
     FM251500 17006KT P6SM OVC012